sensor_id;sensor_type;location;lat;lon;timestamp;P1;durP1;ratioP1;P2;durP2;ratioP2
76714;SDS011;65644;44.990;20.288;2023-07-13T00:00:17;16.38;;;8.52;;
76714;SDS011;65644;44.990;20.288;2023-07-13T00:02:43;14.05;;;8.57;;
76714;SDS011;65644;44.990;20.288;2023-07-13T00:05:09;19.17;;;9.23;;
76714;SDS011;65644;44.990;20.288;2023-07-13T00:07:36;13.23;;;8.45;;
76714;SDS011;65644;44.990;20.288;2023-07-13T00:10:03;17.15;;;9.70;;
76714;SDS011;65644;44.990;20.288;2023-07-13T00:12:30;15.27;;;9.90;;
76714;SDS011;65644;44.990;20.288;2023-07-13T00:14:58;16.52;;;9.13;;
76714;SDS011;65644;44.990;20.288;2023-07-13T00:17:25;14.10;;;9.43;;
76714;SDS011;65644;44.990;20.288;2023-07-13T00:19:51;14.43;;;9.75;;
76714;SDS011;65644;44.990;20.288;2023-07-13T00:22:17;21.52;;;11.20;;
76714;SDS011;65644;44.990;20.288;2023-07-13T00:24:44;17.67;;;9.57;;
76714;SDS011;65644;44.990;20.288;2023-07-13T00:27:10;14.18;;;9.50;;
76714;SDS011;65644;44.990;20.288;2023-07-13T00:29:37;16.58;;;9.77;;
76714;SDS011;65644;44.990;20.288;2023-07-13T00:32:03;19.17;;;9.63;;
76714;SDS011;65644;44.990;20.288;2023-07-13T00:34:29;16.42;;;9.60;;
76714;SDS011;65644;44.990;20.288;2023-07-13T00:36:56;15.18;;;9.43;;
76714;SDS011;65644;44.990;20.288;2023-07-13T00:39:22;16.15;;;9.10;;
76714;SDS011;65644;44.990;20.288;2023-07-13T00:41:48;17.60;;;9.48;;
76714;SDS011;65644;44.990;20.288;2023-07-13T00:44:15;17.67;;;9.32;;
76714;SDS011;65644;44.990;20.288;2023-07-13T00:46:41;13.55;;;9.27;;
76714;SDS011;65644;44.990;20.288;2023-07-13T00:49:07;16.55;;;9.18;;
76714;SDS011;65644;44.990;20.288;2023-07-13T00:51:58;17.35;;;9.40;;
76714;SDS011;65644;44.990;20.288;2023-07-13T00:54:23;16.70;;;9.43;;
76714;SDS011;65644;44.990;20.288;2023-07-13T00:56:51;16.77;;;10.07;;
76714;SDS011;65644;44.990;20.288;2023-07-13T00:59:18;14.68;;;8.85;;
76714;SDS011;65644;44.990;20.288;2023-07-13T01:01:45;20.90;;;10.20;;
76714;SDS011;65644;44.990;20.288;2023-07-13T01:04:11;19.20;;;10.32;;
76714;SDS011;65644;44.990;20.288;2023-07-13T01:06:38;14.00;;;9.00;;
76714;SDS011;65644;44.990;20.288;2023-07-13T01:09:06;16.63;;;10.80;;
76714;SDS011;65644;44.990;20.288;2023-07-13T01:11:33;21.33;;;11.85;;
76714;SDS011;65644;44.990;20.288;2023-07-13T01:14:00;16.50;;;12.13;;
76714;SDS011;65644;44.990;20.288;2023-07-13T01:16:35;16.83;;;11.52;;
76714;SDS011;65644;44.990;20.288;2023-07-13T01:19:03;19.42;;;11.45;;
76714;SDS011;65644;44.990;20.288;2023-07-13T01:21:33;20.58;;;10.82;;
76714;SDS011;65644;44.990;20.288;2023-07-13T01:23:59;23.35;;;11.68;;
76714;SDS011;65644;44.990;20.288;2023-07-13T01:26:26;20.67;;;11.65;;
76714;SDS011;65644;44.990;20.288;2023-07-13T01:28:52;20.17;;;12.13;;
76714;SDS011;65644;44.990;20.288;2023-07-13T01:31:21;19.45;;;12.23;;
76714;SDS011;65644;44.990;20.288;2023-07-13T01:33:47;20.02;;;12.15;;
76714;SDS011;65644;44.990;20.288;2023-07-13T01:36:13;24.27;;;12.90;;
76714;SDS011;65644;44.990;20.288;2023-07-13T01:38:39;19.13;;;11.93;;
76714;SDS011;65644;44.990;20.288;2023-07-13T01:41:05;18.08;;;11.32;;
76714;SDS011;65644;44.990;20.288;2023-07-13T01:43:32;20.02;;;12.20;;
76714;SDS011;65644;44.990;20.288;2023-07-13T01:45:58;20.08;;;11.88;;
76714;SDS011;65644;44.990;20.288;2023-07-13T01:48:24;17.48;;;11.00;;
76714;SDS011;65644;44.990;20.288;2023-07-13T01:50:50;20.67;;;13.25;;
76714;SDS011;65644;44.990;20.288;2023-07-13T01:53:16;16.10;;;11.27;;
76714;SDS011;65644;44.990;20.288;2023-07-13T01:55:42;19.00;;;11.68;;
76714;SDS011;65644;44.990;20.288;2023-07-13T01:58:08;22.13;;;11.73;;
76714;SDS011;65644;44.990;20.288;2023-07-13T02:00:34;21.05;;;11.75;;
76714;SDS011;65644;44.990;20.288;2023-07-13T02:03:00;18.95;;;11.77;;
76714;SDS011;65644;44.990;20.288;2023-07-13T02:05:26;17.50;;;12.52;;
76714;SDS011;65644;44.990;20.288;2023-07-13T02:07:52;17.98;;;11.90;;
76714;SDS011;65644;44.990;20.288;2023-07-13T02:10:18;19.52;;;11.13;;
76714;SDS011;65644;44.990;20.288;2023-07-13T02:12:44;20.60;;;12.90;;
76714;SDS011;65644;44.990;20.288;2023-07-13T02:15:10;16.63;;;11.70;;
76714;SDS011;65644;44.990;20.288;2023-07-13T02:17:37;16.95;;;11.55;;
76714;SDS011;65644;44.990;20.288;2023-07-13T02:20:03;15.27;;;10.88;;
76714;SDS011;65644;44.990;20.288;2023-07-13T02:22:29;21.67;;;11.80;;
76714;SDS011;65644;44.990;20.288;2023-07-13T02:24:55;20.73;;;12.70;;
76714;SDS011;65644;44.990;20.288;2023-07-13T02:27:22;20.20;;;11.55;;
76714;SDS011;65644;44.990;20.288;2023-07-13T02:29:48;18.17;;;11.50;;
76714;SDS011;65644;44.990;20.288;2023-07-13T02:32:16;16.70;;;11.70;;
76714;SDS011;65644;44.990;20.288;2023-07-13T02:34:42;18.55;;;12.02;;
76714;SDS011;65644;44.990;20.288;2023-07-13T02:37:08;24.33;;;13.32;;
76714;SDS011;65644;44.990;20.288;2023-07-13T02:39:34;24.52;;;13.02;;
76714;SDS011;65644;44.990;20.288;2023-07-13T02:42:00;19.38;;;12.68;;
76714;SDS011;65644;44.990;20.288;2023-07-13T02:44:26;17.63;;;11.38;;
76714;SDS011;65644;44.990;20.288;2023-07-13T02:46:52;26.85;;;12.88;;
76714;SDS011;65644;44.990;20.288;2023-07-13T02:49:18;16.58;;;13.05;;
76714;SDS011;65644;44.990;20.288;2023-07-13T02:51:44;15.63;;;12.07;;
76714;SDS011;65644;44.990;20.288;2023-07-13T02:54:10;18.83;;;12.52;;
76714;SDS011;65644;44.990;20.288;2023-07-13T02:56:38;18.50;;;11.68;;
76714;SDS011;65644;44.990;20.288;2023-07-13T02:59:04;21.58;;;12.00;;
76714;SDS011;65644;44.990;20.288;2023-07-13T03:01:30;18.10;;;12.43;;
76714;SDS011;65644;44.990;20.288;2023-07-13T03:03:57;18.80;;;12.38;;
76714;SDS011;65644;44.990;20.288;2023-07-13T03:06:23;22.42;;;12.52;;
76714;SDS011;65644;44.990;20.288;2023-07-13T03:08:49;25.55;;;13.23;;
76714;SDS011;65644;44.990;20.288;2023-07-13T03:11:17;20.33;;;12.48;;
76714;SDS011;65644;44.990;20.288;2023-07-13T03:13:43;18.50;;;11.55;;
76714;SDS011;65644;44.990;20.288;2023-07-13T03:16:10;18.88;;;11.18;;
76714;SDS011;65644;44.990;20.288;2023-07-13T03:18:36;16.55;;;11.50;;
76714;SDS011;65644;44.990;20.288;2023-07-13T03:21:03;19.15;;;11.88;;
76714;SDS011;65644;44.990;20.288;2023-07-13T03:23:29;23.10;;;12.85;;
76714;SDS011;65644;44.990;20.288;2023-07-13T03:26:08;23.65;;;13.50;;
76714;SDS011;65644;44.990;20.288;2023-07-13T03:28:34;20.70;;;11.93;;
76714;SDS011;65644;44.990;20.288;2023-07-13T03:31:05;24.88;;;12.02;;
76714;SDS011;65644;44.990;20.288;2023-07-13T03:33:31;15.48;;;11.80;;
76714;SDS011;65644;44.990;20.288;2023-07-13T03:35:57;19.85;;;11.50;;
76714;SDS011;65644;44.990;20.288;2023-07-13T03:38:24;20.30;;;12.45;;
76714;SDS011;65644;44.990;20.288;2023-07-13T03:40:51;20.05;;;12.88;;
76714;SDS011;65644;44.990;20.288;2023-07-13T03:43:17;17.42;;;11.20;;
76714;SDS011;65644;44.990;20.288;2023-07-13T03:45:43;19.25;;;12.63;;
76714;SDS011;65644;44.990;20.288;2023-07-13T03:48:09;18.90;;;11.45;;
76714;SDS011;65644;44.990;20.288;2023-07-13T03:50:35;24.25;;;13.38;;
76714;SDS011;65644;44.990;20.288;2023-07-13T03:53:01;20.08;;;12.73;;
76714;SDS011;65644;44.990;20.288;2023-07-13T03:55:27;22.33;;;13.27;;
76714;SDS011;65644;44.990;20.288;2023-07-13T03:57:57;21.42;;;13.05;;
76714;SDS011;65644;44.990;20.288;2023-07-13T04:00:23;22.88;;;12.82;;
76714;SDS011;65644;44.990;20.288;2023-07-13T04:02:49;21.83;;;13.55;;
76714;SDS011;65644;44.990;20.288;2023-07-13T04:05:15;19.83;;;13.63;;
76714;SDS011;65644;44.990;20.288;2023-07-13T04:07:42;19.35;;;12.73;;
76714;SDS011;65644;44.990;20.288;2023-07-13T04:10:08;20.55;;;13.60;;
76714;SDS011;65644;44.990;20.288;2023-07-13T04:12:34;17.67;;;13.23;;
76714;SDS011;65644;44.990;20.288;2023-07-13T04:15:00;18.73;;;13.55;;
76714;SDS011;65644;44.990;20.288;2023-07-13T04:17:26;16.90;;;13.30;;
76714;SDS011;65644;44.990;20.288;2023-07-13T04:19:52;19.35;;;13.10;;
76714;SDS011;65644;44.990;20.288;2023-07-13T04:22:18;19.10;;;12.70;;
76714;SDS011;65644;44.990;20.288;2023-07-13T04:24:44;19.27;;;13.70;;
76714;SDS011;65644;44.990;20.288;2023-07-13T04:27:10;21.90;;;13.38;;
76714;SDS011;65644;44.990;20.288;2023-07-13T04:29:36;24.77;;;13.45;;
76714;SDS011;65644;44.990;20.288;2023-07-13T04:32:02;19.73;;;13.90;;
76714;SDS011;65644;44.990;20.288;2023-07-13T04:34:28;21.65;;;13.82;;
76714;SDS011;65644;44.990;20.288;2023-07-13T04:36:54;18.83;;;13.90;;
76714;SDS011;65644;44.990;20.288;2023-07-13T04:39:22;21.17;;;14.18;;
76714;SDS011;65644;44.990;20.288;2023-07-13T04:41:48;18.38;;;13.20;;
76714;SDS011;65644;44.990;20.288;2023-07-13T04:44:14;16.23;;;13.15;;
76714;SDS011;65644;44.990;20.288;2023-07-13T04:46:40;16.40;;;13.10;;
76714;SDS011;65644;44.990;20.288;2023-07-13T04:49:06;14.55;;;12.10;;
76714;SDS011;65644;44.990;20.288;2023-07-13T04:51:32;20.17;;;12.65;;
76714;SDS011;65644;44.990;20.288;2023-07-13T04:53:58;19.05;;;13.52;;
76714;SDS011;65644;44.990;20.288;2023-07-13T04:56:24;21.13;;;12.40;;
76714;SDS011;65644;44.990;20.288;2023-07-13T04:58:50;21.52;;;12.80;;
76714;SDS011;65644;44.990;20.288;2023-07-13T05:01:16;18.67;;;12.40;;
76714;SDS011;65644;44.990;20.288;2023-07-13T05:03:42;18.27;;;13.70;;
76714;SDS011;65644;44.990;20.288;2023-07-13T05:06:08;18.33;;;12.57;;
76714;SDS011;65644;44.990;20.288;2023-07-13T05:08:35;15.32;;;12.23;;
76714;SDS011;65644;44.990;20.288;2023-07-13T05:11:01;17.88;;;12.73;;
76714;SDS011;65644;44.990;20.288;2023-07-13T05:13:28;15.60;;;12.02;;
76714;SDS011;65644;44.990;20.288;2023-07-13T05:16:01;16.05;;;11.82;;
76714;SDS011;65644;44.990;20.288;2023-07-13T05:18:27;19.47;;;12.40;;
76714;SDS011;65644;44.990;20.288;2023-07-13T05:20:56;16.95;;;12.32;;
76714;SDS011;65644;44.990;20.288;2023-07-13T05:23:22;21.73;;;13.23;;
76714;SDS011;65644;44.990;20.288;2023-07-13T05:25:48;19.65;;;13.20;;
76714;SDS011;65644;44.990;20.288;2023-07-13T05:28:14;18.52;;;12.60;;
76714;SDS011;65644;44.990;20.288;2023-07-13T05:30:44;18.88;;;12.85;;
76714;SDS011;65644;44.990;20.288;2023-07-13T05:33:11;18.75;;;13.18;;
76714;SDS011;65644;44.990;20.288;2023-07-13T05:35:37;19.23;;;12.20;;
76714;SDS011;65644;44.990;20.288;2023-07-13T05:38:03;23.20;;;12.95;;
76714;SDS011;65644;44.990;20.288;2023-07-13T05:40:29;22.85;;;13.25;;
76714;SDS011;65644;44.990;20.288;2023-07-13T05:42:55;24.40;;;13.23;;
76714;SDS011;65644;44.990;20.288;2023-07-13T05:45:21;21.40;;;12.43;;
76714;SDS011;65644;44.990;20.288;2023-07-13T05:47:47;25.20;;;13.90;;
76714;SDS011;65644;44.990;20.288;2023-07-13T05:50:13;24.80;;;13.82;;
76714;SDS011;65644;44.990;20.288;2023-07-13T05:52:39;23.85;;;13.65;;
76714;SDS011;65644;44.990;20.288;2023-07-13T05:55:05;24.48;;;12.63;;
76714;SDS011;65644;44.990;20.288;2023-07-13T05:57:31;20.30;;;13.48;;
76714;SDS011;65644;44.990;20.288;2023-07-13T05:59:57;23.73;;;13.15;;
76714;SDS011;65644;44.990;20.288;2023-07-13T06:02:23;20.92;;;13.50;;
76714;SDS011;65644;44.990;20.288;2023-07-13T06:04:50;19.63;;;12.88;;
76714;SDS011;65644;44.990;20.288;2023-07-13T06:07:16;22.92;;;13.98;;
76714;SDS011;65644;44.990;20.288;2023-07-13T06:09:42;16.98;;;12.80;;
76714;SDS011;65644;44.990;20.288;2023-07-13T06:12:08;21.98;;;13.68;;
76714;SDS011;65644;44.990;20.288;2023-07-13T06:14:34;17.23;;;12.13;;
76714;SDS011;65644;44.990;20.288;2023-07-13T06:17:00;22.02;;;12.02;;
76714;SDS011;65644;44.990;20.288;2023-07-13T06:19:28;17.80;;;11.85;;
76714;SDS011;65644;44.990;20.288;2023-07-13T06:21:54;18.48;;;12.43;;
76714;SDS011;65644;44.990;20.288;2023-07-13T06:36:35;20.58;;;13.48;;
76714;SDS011;65644;44.990;20.288;2023-07-13T06:39:01;19.38;;;13.73;;
76714;SDS011;65644;44.990;20.288;2023-07-13T06:41:28;17.02;;;13.52;;
76714;SDS011;65644;44.990;20.288;2023-07-13T06:43:55;22.00;;;13.52;;
76714;SDS011;65644;44.990;20.288;2023-07-13T06:46:22;18.38;;;13.20;;
76714;SDS011;65644;44.990;20.288;2023-07-13T06:48:48;20.40;;;13.45;;
76714;SDS011;65644;44.990;20.288;2023-07-13T06:51:14;21.05;;;13.75;;
76714;SDS011;65644;44.990;20.288;2023-07-13T06:53:40;18.23;;;12.85;;
76714;SDS011;65644;44.990;20.288;2023-07-13T06:56:08;16.70;;;12.80;;
76714;SDS011;65644;44.990;20.288;2023-07-13T06:58:35;23.00;;;12.68;;
76714;SDS011;65644;44.990;20.288;2023-07-13T07:01:01;16.95;;;13.07;;
76714;SDS011;65644;44.990;20.288;2023-07-13T07:03:28;20.35;;;12.75;;
76714;SDS011;65644;44.990;20.288;2023-07-13T07:05:54;18.00;;;13.60;;
76714;SDS011;65644;44.990;20.288;2023-07-13T07:08:25;16.40;;;11.73;;
76714;SDS011;65644;44.990;20.288;2023-07-13T07:10:51;18.40;;;10.68;;
76714;SDS011;65644;44.990;20.288;2023-07-13T07:13:19;16.20;;;9.85;;
76714;SDS011;65644;44.990;20.288;2023-07-13T07:15:45;12.32;;;10.07;;
76714;SDS011;65644;44.990;20.288;2023-07-13T07:18:11;14.75;;;10.57;;
76714;SDS011;65644;44.990;20.288;2023-07-13T07:20:37;13.82;;;9.77;;
76714;SDS011;65644;44.990;20.288;2023-07-13T07:23:03;12.70;;;9.40;;
76714;SDS011;65644;44.990;20.288;2023-07-13T07:25:29;15.18;;;7.88;;
76714;SDS011;65644;44.990;20.288;2023-07-13T07:27:58;13.65;;;7.75;;
76714;SDS011;65644;44.990;20.288;2023-07-13T07:30:24;14.52;;;7.50;;
76714;SDS011;65644;44.990;20.288;2023-07-13T07:32:50;13.52;;;8.10;;
76714;SDS011;65644;44.990;20.288;2023-07-13T07:35:16;14.80;;;7.93;;
76714;SDS011;65644;44.990;20.288;2023-07-13T07:37:42;15.13;;;8.48;;
76714;SDS011;65644;44.990;20.288;2023-07-13T07:40:08;12.55;;;8.57;;
76714;SDS011;65644;44.990;20.288;2023-07-13T07:42:34;14.95;;;8.52;;
76714;SDS011;65644;44.990;20.288;2023-07-13T07:45:00;16.42;;;8.88;;
76714;SDS011;65644;44.990;20.288;2023-07-13T07:47:26;16.70;;;9.35;;
76714;SDS011;65644;44.990;20.288;2023-07-13T07:49:53;14.32;;;9.23;;
76714;SDS011;65644;44.990;20.288;2023-07-13T07:52:18;14.63;;;8.63;;
76714;SDS011;65644;44.990;20.288;2023-07-13T07:54:44;31.48;;;9.73;;
76714;SDS011;65644;44.990;20.288;2023-07-13T07:57:10;16.10;;;8.07;;
76714;SDS011;65644;44.990;20.288;2023-07-13T07:59:37;19.92;;;8.35;;
76714;SDS011;65644;44.990;20.288;2023-07-13T08:02:03;18.17;;;7.68;;
76714;SDS011;65644;44.990;20.288;2023-07-13T08:04:29;18.73;;;7.45;;
76714;SDS011;65644;44.990;20.288;2023-07-13T08:06:55;22.50;;;8.18;;
76714;SDS011;65644;44.990;20.288;2023-07-13T08:09:22;12.60;;;7.45;;
76714;SDS011;65644;44.990;20.288;2023-07-13T08:11:48;20.98;;;7.25;;
76714;SDS011;65644;44.990;20.288;2023-07-13T08:14:14;17.45;;;7.88;;
76714;SDS011;65644;44.990;20.288;2023-07-13T08:16:41;16.85;;;7.78;;
76714;SDS011;65644;44.990;20.288;2023-07-13T08:19:07;15.82;;;7.97;;
76714;SDS011;65644;44.990;20.288;2023-07-13T08:21:33;25.35;;;8.63;;
76714;SDS011;65644;44.990;20.288;2023-07-13T08:23:59;16.10;;;7.68;;
76714;SDS011;65644;44.990;20.288;2023-07-13T08:26:25;14.80;;;7.82;;
76714;SDS011;65644;44.990;20.288;2023-07-13T08:28:51;13.82;;;7.53;;
76714;SDS011;65644;44.990;20.288;2023-07-13T08:31:17;15.90;;;7.75;;
76714;SDS011;65644;44.990;20.288;2023-07-13T08:33:43;20.23;;;7.72;;
76714;SDS011;65644;44.990;20.288;2023-07-13T08:36:10;20.85;;;8.93;;
76714;SDS011;65644;44.990;20.288;2023-07-13T08:38:36;18.85;;;8.40;;
76714;SDS011;65644;44.990;20.288;2023-07-13T08:41:05;16.55;;;8.23;;
76714;SDS011;65644;44.990;20.288;2023-07-13T08:43:36;20.58;;;9.02;;
76714;SDS011;65644;44.990;20.288;2023-07-13T08:48:49;18.60;;;9.00;;
76714;SDS011;65644;44.990;20.288;2023-07-13T08:53:49;18.55;;;8.48;;
76714;SDS011;65644;44.990;20.288;2023-07-13T08:56:17;17.95;;;8.45;;
76714;SDS011;65644;44.990;20.288;2023-07-13T08:58:44;16.85;;;7.50;;
76714;SDS011;65644;44.990;20.288;2023-07-13T09:03:53;18.83;;;7.40;;
76714;SDS011;65644;44.990;20.288;2023-07-13T09:06:23;18.20;;;7.32;;
76714;SDS011;65644;44.990;20.288;2023-07-13T09:08:56;23.20;;;7.78;;
76714;SDS011;65644;44.990;20.288;2023-07-13T09:11:29;12.40;;;6.45;;
76714;SDS011;65644;44.990;20.288;2023-07-13T09:16:24;14.27;;;6.75;;
76714;SDS011;65644;44.990;20.288;2023-07-13T09:18:51;16.13;;;6.57;;
76714;SDS011;65644;44.990;20.288;2023-07-13T09:21:20;16.25;;;6.88;;
76714;SDS011;65644;44.990;20.288;2023-07-13T09:23:47;16.60;;;6.60;;
76714;SDS011;65644;44.990;20.288;2023-07-13T09:26:16;10.32;;;6.07;;
76714;SDS011;65644;44.990;20.288;2023-07-13T09:28:45;15.48;;;6.28;;
76714;SDS011;65644;44.990;20.288;2023-07-13T09:31:15;17.42;;;6.50;;
76714;SDS011;65644;44.990;20.288;2023-07-13T09:33:42;18.40;;;6.90;;
76714;SDS011;65644;44.990;20.288;2023-07-13T09:38:40;20.77;;;6.20;;
76714;SDS011;65644;44.990;20.288;2023-07-13T09:41:23;14.38;;;5.75;;
76714;SDS011;65644;44.990;20.288;2023-07-13T09:44:02;17.25;;;6.65;;
76714;SDS011;65644;44.990;20.288;2023-07-13T09:46:34;16.42;;;6.70;;
76714;SDS011;65644;44.990;20.288;2023-07-13T09:49:00;18.45;;;6.68;;
76714;SDS011;65644;44.990;20.288;2023-07-13T09:51:26;18.67;;;6.78;;
76714;SDS011;65644;44.990;20.288;2023-07-13T09:53:53;16.40;;;6.18;;
76714;SDS011;65644;44.990;20.288;2023-07-13T09:56:21;13.00;;;6.00;;
76714;SDS011;65644;44.990;20.288;2023-07-13T09:58:47;15.63;;;5.53;;
76714;SDS011;65644;44.990;20.288;2023-07-13T10:01:13;20.45;;;6.65;;
76714;SDS011;65644;44.990;20.288;2023-07-13T10:03:39;16.23;;;5.53;;
76714;SDS011;65644;44.990;20.288;2023-07-13T10:08:37;20.45;;;6.85;;
76714;SDS011;65644;44.990;20.288;2023-07-13T10:13:48;14.23;;;6.13;;
76714;SDS011;65644;44.990;20.288;2023-07-13T10:16:15;15.35;;;6.50;;
76714;SDS011;65644;44.990;20.288;2023-07-13T10:21:13;17.75;;;7.75;;
76714;SDS011;65644;44.990;20.288;2023-07-13T10:23:39;20.13;;;6.72;;
76714;SDS011;65644;44.990;20.288;2023-07-13T10:26:09;11.85;;;6.40;;
76714;SDS011;65644;44.990;20.288;2023-07-13T10:28:38;12.23;;;6.05;;
76714;SDS011;65644;44.990;20.288;2023-07-13T10:31:05;17.30;;;6.30;;
76714;SDS011;65644;44.990;20.288;2023-07-13T10:33:35;14.93;;;6.32;;
76714;SDS011;65644;44.990;20.288;2023-07-13T10:36:12;13.23;;;6.30;;
76714;SDS011;65644;44.990;20.288;2023-07-13T10:38:39;14.48;;;5.78;;
76714;SDS011;65644;44.990;20.288;2023-07-13T10:41:07;12.75;;;5.45;;
76714;SDS011;65644;44.990;20.288;2023-07-13T10:43:42;14.68;;;5.95;;
76714;SDS011;65644;44.990;20.288;2023-07-13T10:46:19;15.30;;;6.37;;
76714;SDS011;65644;44.990;20.288;2023-07-13T10:48:48;16.67;;;5.57;;
76714;SDS011;65644;44.990;20.288;2023-07-13T10:51:16;14.90;;;5.82;;
76714;SDS011;65644;44.990;20.288;2023-07-13T10:59:23;12.50;;;5.80;;
76714;SDS011;65644;44.990;20.288;2023-07-13T11:01:58;14.35;;;6.07;;
76714;SDS011;65644;44.990;20.288;2023-07-13T11:04:25;9.38;;;5.30;;
76714;SDS011;65644;44.990;20.288;2023-07-13T11:06:53;13.65;;;6.18;;
76714;SDS011;65644;44.990;20.288;2023-07-13T11:11:55;15.85;;;5.78;;
76714;SDS011;65644;44.990;20.288;2023-07-13T11:16:54;17.60;;;5.70;;
76714;SDS011;65644;44.990;20.288;2023-07-13T11:29:48;14.23;;;5.70;;
76714;SDS011;65644;44.990;20.288;2023-07-13T11:32:29;10.60;;;5.47;;
76714;SDS011;65644;44.990;20.288;2023-07-13T11:34:56;12.95;;;5.22;;
76714;SDS011;65644;44.990;20.288;2023-07-13T11:37:23;14.20;;;4.95;;
76714;SDS011;65644;44.990;20.288;2023-07-13T11:39:50;13.98;;;5.75;;
76714;SDS011;65644;44.990;20.288;2023-07-13T11:42:17;11.82;;;5.30;;
76714;SDS011;65644;44.990;20.288;2023-07-13T11:44:48;10.20;;;5.43;;
76714;SDS011;65644;44.990;20.288;2023-07-13T11:47:17;18.27;;;5.43;;
76714;SDS011;65644;44.990;20.288;2023-07-13T11:49:44;14.27;;;5.55;;
76714;SDS011;65644;44.990;20.288;2023-07-13T11:52:14;13.18;;;5.85;;
76714;SDS011;65644;44.990;20.288;2023-07-13T11:54:48;16.33;;;4.85;;
76714;SDS011;65644;44.990;20.288;2023-07-13T11:59:59;16.48;;;5.30;;
76714;SDS011;65644;44.990;20.288;2023-07-13T12:02:33;20.52;;;5.57;;
76714;SDS011;65644;44.990;20.288;2023-07-13T12:04:59;15.48;;;5.60;;
76714;SDS011;65644;44.990;20.288;2023-07-13T12:07:28;10.77;;;5.07;;
76714;SDS011;65644;44.990;20.288;2023-07-13T12:09:59;16.10;;;4.95;;
76714;SDS011;65644;44.990;20.288;2023-07-13T12:12:28;19.90;;;6.22;;
76714;SDS011;65644;44.990;20.288;2023-07-13T12:14:54;14.52;;;5.22;;
76714;SDS011;65644;44.990;20.288;2023-07-13T12:17:22;8.30;;;5.47;;
76714;SDS011;65644;44.990;20.288;2023-07-13T12:19:49;11.43;;;5.47;;
76714;SDS011;65644;44.990;20.288;2023-07-13T12:22:16;13.90;;;5.28;;
76714;SDS011;65644;44.990;20.288;2023-07-13T12:24:43;13.15;;;6.28;;
76714;SDS011;65644;44.990;20.288;2023-07-13T12:29:52;11.90;;;4.65;;
76714;SDS011;65644;44.990;20.288;2023-07-13T12:32:21;14.60;;;5.60;;
76714;SDS011;65644;44.990;20.288;2023-07-13T12:34:56;13.38;;;5.13;;
76714;SDS011;65644;44.990;20.288;2023-07-13T12:37:23;12.40;;;5.22;;
76714;SDS011;65644;44.990;20.288;2023-07-13T12:39:50;15.50;;;5.47;;
76714;SDS011;65644;44.990;20.288;2023-07-13T12:42:22;12.13;;;5.25;;
76714;SDS011;65644;44.990;20.288;2023-07-13T12:44:52;10.77;;;5.03;;
76714;SDS011;65644;44.990;20.288;2023-07-13T12:47:19;18.08;;;5.88;;
76714;SDS011;65644;44.990;20.288;2023-07-13T12:49:53;15.18;;;5.25;;
76714;SDS011;65644;44.990;20.288;2023-07-13T12:52:21;11.23;;;5.13;;
76714;SDS011;65644;44.990;20.288;2023-07-13T12:54:54;13.60;;;4.78;;
76714;SDS011;65644;44.990;20.288;2023-07-13T12:57:22;12.93;;;5.20;;
76714;SDS011;65644;44.990;20.288;2023-07-13T12:59:51;11.35;;;4.95;;
76714;SDS011;65644;44.990;20.288;2023-07-13T13:02:25;9.73;;;4.32;;
76714;SDS011;65644;44.990;20.288;2023-07-13T13:04:52;12.35;;;4.80;;
76714;SDS011;65644;44.990;20.288;2023-07-13T13:07:20;13.75;;;4.78;;
76714;SDS011;65644;44.990;20.288;2023-07-13T13:09:46;9.50;;;4.72;;
76714;SDS011;65644;44.990;20.288;2023-07-13T13:12:12;11.85;;;4.75;;
76714;SDS011;65644;44.990;20.288;2023-07-13T13:14:38;11.43;;;4.90;;
76714;SDS011;65644;44.990;20.288;2023-07-13T13:17:07;10.90;;;5.15;;
76714;SDS011;65644;44.990;20.288;2023-07-13T13:22:04;16.23;;;5.32;;
76714;SDS011;65644;44.990;20.288;2023-07-13T13:24:30;13.32;;;5.32;;
76714;SDS011;65644;44.990;20.288;2023-07-13T13:26:56;11.60;;;4.60;;
76714;SDS011;65644;44.990;20.288;2023-07-13T13:29:23;20.08;;;4.88;;
76714;SDS011;65644;44.990;20.288;2023-07-13T13:31:49;10.70;;;4.53;;
76714;SDS011;65644;44.990;20.288;2023-07-13T13:34:16;13.07;;;4.82;;
76714;SDS011;65644;44.990;20.288;2023-07-13T13:36:43;14.05;;;5.32;;
76714;SDS011;65644;44.990;20.288;2023-07-13T13:41:41;16.85;;;5.03;;
76714;SDS011;65644;44.990;20.288;2023-07-13T13:44:09;9.00;;;4.43;;
76714;SDS011;65644;44.990;20.288;2023-07-13T13:46:35;8.88;;;4.63;;
76714;SDS011;65644;44.990;20.288;2023-07-13T13:49:01;21.88;;;5.97;;
76714;SDS011;65644;44.990;20.288;2023-07-13T13:51:27;16.60;;;5.28;;
76714;SDS011;65644;44.990;20.288;2023-07-13T13:53:54;14.68;;;5.78;;
76714;SDS011;65644;44.990;20.288;2023-07-13T13:56:20;12.73;;;5.25;;
76714;SDS011;65644;44.990;20.288;2023-07-13T13:58:46;13.18;;;4.47;;
76714;SDS011;65644;44.990;20.288;2023-07-13T14:01:13;13.10;;;4.53;;
76714;SDS011;65644;44.990;20.288;2023-07-13T14:03:42;15.88;;;5.85;;
76714;SDS011;65644;44.990;20.288;2023-07-13T14:06:12;13.00;;;5.32;;
76714;SDS011;65644;44.990;20.288;2023-07-13T14:08:38;13.50;;;4.90;;
76714;SDS011;65644;44.990;20.288;2023-07-13T14:11:05;11.70;;;4.22;;
76714;SDS011;65644;44.990;20.288;2023-07-13T14:13:32;12.73;;;5.03;;
76714;SDS011;65644;44.990;20.288;2023-07-13T14:16:01;13.32;;;5.22;;
76714;SDS011;65644;44.990;20.288;2023-07-13T14:18:27;15.05;;;4.97;;
76714;SDS011;65644;44.990;20.288;2023-07-13T14:20:53;12.10;;;4.90;;
76714;SDS011;65644;44.990;20.288;2023-07-13T14:23:19;13.43;;;5.47;;
76714;SDS011;65644;44.990;20.288;2023-07-13T14:25:46;14.57;;;5.50;;
76714;SDS011;65644;44.990;20.288;2023-07-13T14:28:19;10.52;;;4.05;;
76714;SDS011;65644;44.990;20.288;2023-07-13T14:30:46;10.60;;;4.88;;
76714;SDS011;65644;44.990;20.288;2023-07-13T14:33:13;15.65;;;4.72;;
76714;SDS011;65644;44.990;20.288;2023-07-13T14:35:39;17.40;;;5.47;;
76714;SDS011;65644;44.990;20.288;2023-07-13T14:38:08;12.70;;;5.10;;
76714;SDS011;65644;44.990;20.288;2023-07-13T14:40:34;9.85;;;4.60;;
76714;SDS011;65644;44.990;20.288;2023-07-13T14:43:00;11.15;;;4.55;;
76714;SDS011;65644;44.990;20.288;2023-07-13T14:45:26;9.82;;;4.50;;
76714;SDS011;65644;44.990;20.288;2023-07-13T14:47:53;11.95;;;4.60;;
76714;SDS011;65644;44.990;20.288;2023-07-13T14:50:20;10.95;;;4.22;;
76714;SDS011;65644;44.990;20.288;2023-07-13T14:52:47;10.43;;;4.60;;
76714;SDS011;65644;44.990;20.288;2023-07-13T14:55:15;9.70;;;4.57;;
76714;SDS011;65644;44.990;20.288;2023-07-13T14:57:41;14.02;;;4.82;;
76714;SDS011;65644;44.990;20.288;2023-07-13T15:00:18;14.82;;;5.38;;
76714;SDS011;65644;44.990;20.288;2023-07-13T15:02:45;12.35;;;4.95;;
76714;SDS011;65644;44.990;20.288;2023-07-13T15:05:22;11.55;;;5.15;;
76714;SDS011;65644;44.990;20.288;2023-07-13T15:07:49;12.15;;;4.53;;
76714;SDS011;65644;44.990;20.288;2023-07-13T15:10:17;14.10;;;4.88;;
76714;SDS011;65644;44.990;20.288;2023-07-13T15:12:43;13.10;;;5.07;;
76714;SDS011;65644;44.990;20.288;2023-07-13T15:15:10;11.00;;;5.07;;
76714;SDS011;65644;44.990;20.288;2023-07-13T15:22:37;13.48;;;5.47;;
76714;SDS011;65644;44.990;20.288;2023-07-13T15:25:03;17.27;;;5.18;;